Time;durP1;ratioP1;P1;durP2;ratioP2;P2;SDS_P1;SDS_P2;PMS_P1;PMS_P2;Temp;Humidity;BMP_temperature;BMP_pressure;BME280_temperature;BME280_humidity;BME280_pressure;Samples;Min_cycle;Max_cycle;Signal;HPM_P1;HPM_P2
2023/12/18 00:01:36;;;;;;;;;;;;;;;23.26;34.18;103132.06;5029303;28;19935;-48
2023/12/18 00:04:03;;;;;;;;;;;;;;;23.08;34.23;103093.94;5015492;28;20369;-45
2023/12/18 00:06:28;;;;;;;;;;;;;;;23.19;34.50;103112.81;5035831;28;19934;-46
2023/12/18 00:08:53;;;;;;;;;;;;;;;23.19;34.46;103109.19;5027636;28;19917;-47
2023/12/18 00:11:19;;;;;;;;;;;;;;;22.33;34.59;102995.09;5070986;28;20329;-46
2023/12/18 00:13:44;;;;;;;;;;;;;;;23.10;34.64;103112.78;5066153;28;19920;-45
2023/12/18 00:16:09;;;;;;;;;;;;;;;23.08;34.79;103110.22;5018295;28;20009;-48
2023/12/18 00:18:34;;;;;;;;;;;;;;;23.08;34.50;103106.66;5010834;28;19923;-49
2023/12/18 00:20:59;;;;;;;;;;;;;;;23.10;34.65;103101.94;5035836;28;19979;-44
2023/12/18 00:23:25;;;;;;;;;;;;;;;23.09;34.42;103106.50;5063365;28;19934;-48
2023/12/18 00:25:50;;;;;;;;;;;;;;;23.05;34.47;103091.50;5023727;28;19918;-48
2023/12/18 00:28:15;;;;;;;;;;;;;;;23.04;34.60;103094.38;5064340;28;19914;-44
2023/12/18 00:30:41;;;;;;;;;;;;;;;23.02;34.57;103096.34;5030880;28;19971;-46
2023/12/18 00:33:06;;;;;;;;;;;;;;;23.00;34.86;103101.94;5019061;28;19917;-46
2023/12/18 00:35:31;;;;;;;;;;;;;;;22.97;34.84;103104.94;5019662;28;19912;-49
2023/12/18 00:37:56;;;;;;;;;;;;;;;22.97;34.75;103101.38;5039736;28;19997;-47
2023/12/18 00:40:22;;;;;;;;;;;;;;;22.95;35.02;103096.94;5008913;28;19921;-48
2023/12/18 00:42:50;;;;;;;;;;;;;;;22.94;34.98;103094.38;5092866;28;20399;-45
2023/12/18 00:45:15;;;;;;;;;;;;;;;22.91;34.80;103092.81;5033128;28;19925;-47
2023/12/18 00:47:40;;;;;;;;;;;;;;;22.88;35.10;103093.03;5010620;28;19918;-50
2023/12/18 00:50:07;;;;;;;;;;;;;;;22.87;34.94;103090.50;5017793;28;19923;-47
2023/12/18 00:52:33;;;;;;;;;;;;;;;22.84;34.77;103078.06;5030048;28;19923;-46
2023/12/18 00:54:58;;;;;;;;;;;;;;;22.80;34.83;103071.19;5024011;28;19918;-47
2023/12/18 00:57:23;;;;;;;;;;;;;;;22.80;35.20;103070.34;5013618;28;19991;-48
2023/12/18 00:59:48;;;;;;;;;;;;;;;22.78;35.29;103084.06;5038227;28;19993;-47
2023/12/18 01:02:14;;;;;;;;;;;;;;;22.76;35.08;103082.47;5019499;28;19935;-48
2023/12/18 01:04:39;;;;;;;;;;;;;;;22.73;34.93;103086.34;5009345;28;19922;-47
2023/12/18 01:07:04;;;;;;;;;;;;;;;22.72;35.23;103081.91;5030591;28;19913;-46
2023/12/18 01:09:29;;;;;;;;;;;;;;;22.70;35.23;103087.47;5030429;28;19976;-45
2023/12/18 01:11:54;;;;;;;;;;;;;;;22.67;35.23;103084.19;5006572;28;19921;-45
2023/12/18 01:14:19;;;;;;;;;;;;;;;22.65;35.09;103088.91;5033334;28;19912;-45
2023/12/18 01:16:45;;;;;;;;;;;;;;;22.64;35.10;103095.31;5046017;28;19914;-45
2023/12/18 01:19:10;;;;;;;;;;;;;;;22.60;35.23;103100.16;5008263;28;19913;-44
2023/12/18 01:21:35;;;;;;;;;;;;;;;22.57;35.23;103100.44;5017602;28;19957;-45
2023/12/18 01:24:00;;;;;;;;;;;;;;;22.54;35.29;103100.72;5030940;28;19918;-44
2023/12/18 01:26:25;;;;;;;;;;;;;;;22.54;35.29;103095.28;5025135;28;19916;-45
2023/12/18 01:28:50;;;;;;;;;;;;;;;22.55;35.25;103088.00;5027622;28;20025;-46
2023/12/18 01:31:24;;;;;;;;;;;;;;;22.53;35.61;103096.31;5036247;28;19913;-45
2023/12/18 01:33:53;;;;;;;;;;;;;;;22.46;35.46;103095.97;5029346;28;20382;-44
2023/12/18 01:36:18;;;;;;;;;;;;;;;22.45;35.53;103097.00;5035816;28;19917;-44
2023/12/18 01:38:43;;;;;;;;;;;;;;;22.43;35.68;103095.44;5041578;28;20383;-45
2023/12/18 01:41:08;;;;;;;;;;;;;;;22.40;35.61;103093.84;5023646;28;19913;-46
2023/12/18 01:43:34;;;;;;;;;;;;;;;22.35;35.83;103093.41;5011080;28;20379;-46
2023/12/18 01:45:59;;;;;;;;;;;;;;;22.34;35.63;103083.53;5038044;28;19991;-45
2023/12/18 01:48:25;;;;;;;;;;;;;;;22.30;35.85;103090.25;5045045;28;19945;-49
2023/12/18 01:50:52;;;;;;;;;;;;;;;22.29;35.79;103076.84;5055255;28;19920;-44
2023/12/18 01:53:17;;;;;;;;;;;;;;;22.26;35.80;103075.28;5046047;28;20262;-44
2023/12/18 01:55:42;;;;;;;;;;;;;;;22.25;35.73;103076.25;5066452;28;20425;-46
2023/12/18 01:58:08;;;;;;;;;;;;;;;22.24;35.79;103066.41;5069617;28;19940;-47
2023/12/18 02:00:33;;;;;;;;;;;;;;;22.22;36.05;103071.13;5023700;28;19926;-45
2023/12/18 02:02:58;;;;;;;;;;;;;;;22.20;35.85;103073.97;5012433;28;19918;-44
2023/12/18 02:05:23;;;;;;;;;;;;;;;22.19;36.00;103071.41;5065654;28;20009;-47
2023/12/18 02:07:48;;;;;;;;;;;;;;;22.14;36.14;103077.22;5019245;28;20017;-46
2023/12/18 02:10:13;;;;;;;;;;;;;;;22.12;36.03;103068.38;5022756;28;20384;-43
2023/12/18 02:12:39;;;;;;;;;;;;;;;22.11;35.99;103076.59;5014038;28;19917;-48
2023/12/18 02:15:04;;;;;;;;;;;;;;;22.09;36.18;103086.72;5013828;28;19919;-45
2023/12/18 02:17:29;;;;;;;;;;;;;;;22.06;36.01;103087.84;5073684;28;19919;-45
2023/12/18 02:20:07;;;;;;;;;;;;;;;22.04;36.07;103089.84;5030542;28;19936;-45
2023/12/18 02:22:35;;;;;;;;;;;;;;;22.02;36.14;103091.84;5023324;28;19946;-44
2023/12/18 02:25:00;;;;;;;;;;;;;;;22.00;36.34;103082.97;5043144;28;19916;-45
2023/12/18 02:27:25;;;;;;;;;;;;;;;21.99;36.45;103089.38;5012301;28;19949;-46
2023/12/18 02:29:50;;;;;;;;;;;;;;;21.96;36.17;103084.25;5013786;28;20364;-46
2023/12/18 02:32:15;;;;;;;;;;;;;;;21.94;36.41;103083.53;5033509;28;19913;-48
2023/12/18 02:34:41;;;;;;;;;;;;;;;21.92;36.35;103082.81;5023183;28;19953;-48
2023/12/18 02:37:06;;;;;;;;;;;;;;;21.89;36.32;103075.81;5023613;28;19917;-45
2023/12/18 02:39:31;;;;;;;;;;;;;;;21.89;36.30;103072.25;5035751;28;19913;-46
2023/12/18 02:41:56;;;;;;;;;;;;;;;21.86;36.63;103061.69;5021799;28;19917;-45
2023/12/18 02:44:21;;;;;;;;;;;;;;;21.84;36.66;103061.84;5068638;28;19922;-44
2023/12/18 02:46:46;;;;;;;;;;;;;;;21.84;36.41;103055.56;5021544;28;20383;-46
2023/12/18 02:49:12;;;;;;;;;;;;;;;21.82;36.44;103061.09;5033956;28;19955;-47
2023/12/18 02:51:37;;;;;;;;;;;;;;;21.80;36.79;103057.69;5011040;28;19917;-44
2023/12/18 02:54:02;;;;;;;;;;;;;;;21.79;36.80;103060.50;5026798;28;19921;-47
2023/12/18 02:56:27;;;;;;;;;;;;;;;21.77;36.72;103055.22;5049393;28;19959;-46
2023/12/18 02:58:53;;;;;;;;;;;;;;;21.75;36.76;103043.69;5014746;28;19940;-45
2023/12/18 03:01:18;;;;;;;;;;;;;;;21.74;36.93;103039.25;5071286;28;20049;-46
2023/12/18 03:03:43;;;;;;;;;;;;;;;21.73;36.52;103044.81;5038605;28;19912;-45
2023/12/18 03:06:08;;;;;;;;;;;;;;;21.70;36.88;103038.66;5022071;28;20332;-46
2023/12/18 03:08:34;;;;;;;;;;;;;;;21.70;36.59;103029.69;5023245;28;19958;-46
2023/12/18 03:10:59;;;;;;;;;;;;;;;21.67;36.60;103035.41;5043516;28;19917;-44
2023/12/18 03:13:24;;;;;;;;;;;;;;;21.65;36.68;103040.06;5059810;28;19912;-49
2023/12/18 03:15:49;;;;;;;;;;;;;;;21.64;36.68;103041.91;5030410;28;19923;-44
2023/12/18 03:18:14;;;;;;;;;;;;;;;21.62;36.86;103046.63;5043264;28;19916;-47
2023/12/18 03:20:39;;;;;;;;;;;;;;;21.61;36.91;103054.88;5030154;28;19919;-45
2023/12/18 03:23:05;;;;;;;;;;;;;;;21.61;37.05;103060.28;5009605;28;19984;-45
2023/12/18 03:25:30;;;;;;;;;;;;;;;21.59;37.14;103052.31;5025528;28;19918;-44
2023/12/18 03:27:55;;;;;;;;;;;;;;;21.57;37.05;103056.13;5052844;28;19945;-44
2023/12/18 03:30:20;;;;;;;;;;;;;;;21.55;36.96;103050.84;5049288;28;19925;-44
2023/12/18 03:32:46;;;;;;;;;;;;;;;21.54;36.82;103049.16;5042982;28;19914;-45
2023/12/18 03:35:11;;;;;;;;;;;;;;;21.54;37.18;103048.28;5032206;28;19936;-44
2023/12/18 03:37:36;;;;;;;;;;;;;;;21.51;37.20;103059.38;5011200;28;20334;-46
2023/12/18 03:40:01;;;;;;;;;;;;;;;21.50;37.11;103053.13;5020609;28;19912;-44
2023/12/18 03:42:26;;;;;;;;;;;;;;;21.48;37.23;103055.09;5025144;28;19914;-44
2023/12/18 03:44:52;;;;;;;;;;;;;;;21.46;37.01;103060.63;5004067;28;19922;-46
2023/12/18 03:47:17;;;;;;;;;;;;;;;21.44;37.30;103056.34;5027079;28;19924;-47
2023/12/18 03:49:42;;;;;;;;;;;;;;;21.43;37.38;103057.34;5044486;28;19924;-45
2023/12/18 03:52:07;;;;;;;;;;;;;;;21.41;37.38;103057.47;5019797;28;19918;-45
2023/12/18 03:54:32;;;;;;;;;;;;;;;21.40;37.29;103057.59;5012557;28;19920;-45
2023/12/18 03:56:57;;;;;;;;;;;;;;;21.38;37.41;103055.03;5021642;28;20423;-45
2023/12/18 03:59:23;;;;;;;;;;;;;;;21.37;37.16;103056.03;5021243;28;19924;-45
2023/12/18 04:01:48;;;;;;;;;;;;;;;21.35;37.22;103047.16;5006125;28;19924;-46
2023/12/18 04:04:13;;;;;;;;;;;;;;;21.34;37.40;103052.72;5035870;28;19929;-46
2023/12/18 04:06:41;;;;;;;;;;;;;;;21.33;37.31;103045.59;5021666;28;19960;-48
2023/12/18 04:09:06;;;;;;;;;;;;;;;21.31;37.32;103042.97;5014734;28;19920;-44
2023/12/18 04:11:32;;;;;;;;;;;;;;;21.30;37.19;103045.84;5013092;28;19947;-46
2023/12/18 04:13:57;;;;;;;;;;;;;;;21.28;37.17;103040.56;5042369;28;19914;-47
2023/12/18 04:16:22;;;;;;;;;;;;;;;21.27;37.62;103038.81;5018866;28;19936;-46
2023/12/18 04:18:48;;;;;;;;;;;;;;;21.25;37.51;103027.28;5021172;28;19918;-47
2023/12/18 04:21:13;;;;;;;;;;;;;;;21.23;37.34;103031.97;5042592;28;19913;-45
2023/12/18 04:23:38;;;;;;;;;;;;;;;21.22;37.51;103038.38;5009794;28;19929;-49
2023/12/18 04:26:03;;;;;;;;;;;;;;;21.21;37.60;103031.25;5020070;28;19916;-47
2023/12/18 04:28:29;;;;;;;;;;;;;;;21.18;37.65;103026.94;5036316;28;19925;-45
2023/12/18 04:30:54;;;;;;;;;;;;;;;21.18;37.57;103024.25;5022660;28;19936;-46
2023/12/18 04:33:19;;;;;;;;;;;;;;;21.18;37.61;103026.09;5024319;28;19912;-46
2023/12/18 04:35:44;;;;;;;;;;;;;;;21.15;37.58;103013.72;5027384;28;19914;-45
2023/12/18 04:38:09;;;;;;;;;;;;;;;21.15;37.45;103026.34;5033691;28;19913;-45
2023/12/18 04:40:35;;;;;;;;;;;;;;;21.13;37.46;103026.50;5010959;28;19914;-43
2023/12/18 04:43:00;;;;;;;;;;;;;;;21.12;37.57;103032.06;5079909;28;20449;-46
2023/12/18 04:45:25;;;;;;;;;;;;;;;21.10;37.69;103034.88;5030427;28;19923;-45
2023/12/18 04:47:51;;;;;;;;;;;;;;;21.09;37.55;103022.34;5018145;28;19976;-45
2023/12/18 04:50:16;;;;;;;;;;;;;;;21.07;37.48;103023.44;5027569;28;20003;-45
2023/12/18 04:52:41;;;;;;;;;;;;;;;21.05;37.56;103026.28;5039409;28;19971;-45
2023/12/18 04:55:06;;;;;;;;;;;;;;;21.04;37.57;103031.84;5004311;28;20048;-44
2023/12/18 04:57:32;;;;;;;;;;;;;;;21.03;37.61;103035.56;5067047;28;20394;-45
2023/12/18 04:59:57;;;;;;;;;;;;;;;21.02;37.57;103039.22;5033194;28;20364;-43
2023/12/18 05:02:22;;;;;;;;;;;;;;;20.99;37.80;103031.41;5012774;28;20383;-45
2023/12/18 05:04:47;;;;;;;;;;;;;;;20.97;37.76;103034.22;5026486;28;19918;-45
2023/12/18 05:07:12;;;;;;;;;;;;;;;20.95;37.66;103033.50;5045714;28;19970;-48
2023/12/18 05:09:39;;;;;;;;;;;;;;;20.94;37.67;103023.63;5018175;28;20613;-47
2023/12/18 05:12:04;;;;;;;;;;;;;;;20.93;37.67;103024.63;5053997;28;19912;-46
2023/12/18 05:14:29;;;;;;;;;;;;;;;20.92;37.75;103026.50;5036776;28;19960;-47
2023/12/18 05:16:54;;;;;;;;;;;;;;;20.90;37.84;103022.22;5017045;28;19983;-46
2023/12/18 05:19:20;;;;;;;;;;;;;;;20.90;38.04;103014.09;5024289;28;20467;-47
2023/12/18 05:21:45;;;;;;;;;;;;;;;20.87;38.14;103008.94;5070096;28;19928;-48
2023/12/18 05:24:10;;;;;;;;;;;;;;;20.85;37.99;103003.66;5000817;28;20454;-47
2023/12/18 05:26:35;;;;;;;;;;;;;;;20.83;37.81;103005.66;5008914;28;19913;-47
2023/12/18 05:29:01;;;;;;;;;;;;;;;20.83;38.10;103005.66;5023089;28;20022;-47
2023/12/18 05:31:26;;;;;;;;;;;;;;;20.81;38.11;102998.63;5065867;28;19914;-44
2023/12/18 05:33:51;;;;;;;;;;;;;;;20.80;37.96;102991.53;5002835;28;19917;-46
2023/12/18 05:36:16;;;;;;;;;;;;;;;20.78;38.05;102991.66;5010267;28;19993;-47
2023/12/18 05:38:42;;;;;;;;;;;;;;;20.79;38.09;102997.94;5074438;28;19917;-45
2023/12/18 05:41:07;;;;;;;;;;;;;;;20.78;38.12;102993.50;5028766;28;20594;-44
2023/12/18 05:43:32;;;;;;;;;;;;;;;20.77;38.41;102997.19;4998396;28;20405;-44
2023/12/18 05:45:58;;;;;;;;;;;;;;;20.76;38.69;103001.75;5007626;28;19957;-44
2023/12/18 05:48:23;;;;;;;;;;;;;;;20.75;38.63;103010.84;5002991;28;20361;-45
2023/12/18 05:50:48;;;;;;;;;;;;;;;20.75;38.41;103015.41;5000067;28;19968;-44
2023/12/18 05:53:13;;;;;;;;;;;;;;;20.74;38.64;103017.25;4996225;28;19964;-46
2023/12/18 05:55:38;;;;;;;;;;;;;;;20.73;38.81;103020.94;5000059;28;20516;-43
2023/12/18 05:58:03;;;;;;;;;;;;;;;20.72;38.86;103016.50;5004231;28;19925;-47
2023/12/18 06:00:29;;;;;;;;;;;;;;;20.71;38.69;103012.09;5008264;28;19914;-47
2023/12/18 06:02:54;;;;;;;;;;;;;;;20.71;38.83;103006.69;5008005;28;19917;-43
2023/12/18 06:05:19;;;;;;;;;;;;;;;20.69;38.92;103014.94;5000874;28;19925;-48
2023/12/18 06:07:44;;;;;;;;;;;;;;;20.68;38.72;103015.91;5064026;28;20029;-46
2023/12/18 06:10:09;;;;;;;;;;;;;;;20.68;38.91;103015.03;4998188;28;19917;-46
2023/12/18 06:12:36;;;;;;;;;;;;;;;20.66;39.12;103007.06;4997273;28;19921;-49
2023/12/18 06:15:01;;;;;;;;;;;;;;;20.66;39.00;103006.22;5092711;28;20492;-50
2023/12/18 06:17:26;;;;;;;;;;;;;;;20.65;39.30;103001.81;5015794;28;19928;-46
2023/12/18 06:19:51;;;;;;;;;;;;;;;20.65;39.22;103012.63;5004983;28;19917;-44
2023/12/18 06:22:16;;;;;;;;;;;;;;;20.63;39.30;103003.75;5018217;28;19924;-48
2023/12/18 06:24:41;;;;;;;;;;;;;;;20.62;39.50;103002.91;5011454;28;19922;-50
2023/12/18 06:27:07;;;;;;;;;;;;;;;20.61;39.35;103000.34;5000586;28;19947;-47
2023/12/18 06:29:32;;;;;;;;;;;;;;;20.61;39.49;102992.25;5002329;28;19993;-46
2023/12/18 06:31:57;;;;;;;;;;;;;;;20.60;39.50;102993.19;5004381;28;19914;-46
2023/12/18 06:34:23;;;;;;;;;;;;;;;20.59;39.52;102995.06;5069553;28;20453;-49
2023/12/18 06:36:48;;;;;;;;;;;;;;;20.59;39.67;102991.50;5004095;28;19918;-45
2023/12/18 06:39:13;;;;;;;;;;;;;;;20.57;39.48;102994.34;5010793;28;19971;-47
2023/12/18 06:41:38;;;;;;;;;;;;;;;20.58;39.49;102997.91;5001599;28;19925;-45
2023/12/18 06:44:04;;;;;;;;;;;;;;;20.56;39.60;102995.34;5000011;28;19986;-47
2023/12/18 06:46:30;;;;;;;;;;;;;;;20.56;39.40;102989.03;5001204;28;19914;-48
2023/12/18 06:48:55;;;;;;;;;;;;;;;20.55;39.54;102999.00;4999709;28;20020;-47
2023/12/18 06:51:20;;;;;;;;;;;;;;;20.54;39.63;102993.72;5087368;28;19914;-45
2023/12/18 06:53:45;;;;;;;;;;;;;;;20.53;39.47;102995.59;5010705;28;19922;-46
2023/12/18 06:56:12;;;;;;;;;;;;;;;20.52;39.40;102993.00;5011334;28;19949;-47
2023/12/18 06:58:37;;;;;;;;;;;;;;;20.51;39.55;102992.13;5000531;28;19914;-49
2023/12/18 07:01:02;;;;;;;;;;;;;;;20.51;39.68;102999.38;5019099;28;20334;-47
2023/12/18 07:03:27;;;;;;;;;;;;;;;20.50;39.61;103003.09;5014167;28;19925;-47
2023/12/18 07:05:53;;;;;;;;;;;;;;;20.49;39.49;102993.28;5011566;28;19928;-46
2023/12/18 07:08:18;;;;;;;;;;;;;;;20.47;39.41;103007.75;5010064;28;20477;-48
2023/12/18 07:10:43;;;;;;;;;;;;;;;20.47;39.46;103006.84;5006762;28;19914;-45
2023/12/18 07:13:09;;;;;;;;;;;;;;;20.45;39.56;103007.00;4998723;28;19921;-45
2023/12/18 07:15:34;;;;;;;;;;;;;;;20.45;39.50;103006.13;5005264;28;19978;-46
2023/12/18 07:17:59;;;;;;;;;;;;;;;20.43;40.02;103002.69;5003946;28;19918;-49
2023/12/18 07:20:25;;;;;;;;;;;;;;;20.43;40.03;103008.09;5013126;28;19978;-46
2023/12/18 07:22:50;;;;;;;;;;;;;;;20.42;40.11;103018.03;5011363;28;19914;-47
2023/12/18 07:25:15;;;;;;;;;;;;;;;20.41;40.05;103005.53;5017927;28;19947;-47
2023/12/18 07:27:40;;;;;;;;;;;;;;;20.41;39.78;103010.94;5013707;28;19918;-45
2023/12/18 07:30:06;;;;;;;;;;;;;;;20.42;39.80;103018.03;5070132;28;19924;-47
2023/12/18 07:32:31;;;;;;;;;;;;;;;20.41;39.98;103016.34;5029339;28;20549;-49
2023/12/18 07:34:59;;;;;;;;;;;;;;;20.41;39.91;103016.34;5019372;28;20299;-44
2023/12/18 07:37:24;;;;;;;;;;;;;;;20.40;39.70;103020.03;5012168;28;19924;-47
2023/12/18 07:39:50;;;;;;;;;;;;;;;20.41;39.73;103016.34;5009150;28;19953;-49
2023/12/18 07:42:15;;;;;;;;;;;;;;;20.39;39.73;103010.22;5021041;28;19942;-44
2023/12/18 07:44:40;;;;;;;;;;;;;;;20.39;39.67;103001.22;5007387;28;19921;-46
2023/12/18 07:47:07;;;;;;;;;;;;;;;20.38;39.80;102997.66;5015952;28;19925;-45
2023/12/18 07:49:32;;;;;;;;;;;;;;;20.38;39.47;103002.22;5025287;28;19918;-46
2023/12/18 07:51:57;;;;;;;;;;;;;;;20.37;39.48;103011.31;5024658;28;19925;-46
2023/12/18 07:54:23;;;;;;;;;;;;;;;20.36;39.64;103010.47;5022792;28;19988;-45
2023/12/18 07:56:49;;;;;;;;;;;;;;;20.35;39.86;103016.88;5033246;28;19925;-46
2023/12/18 07:59:15;;;;;;;;;;;;;;;20.34;39.80;103016.97;5023079;28;19918;-46
2023/12/18 08:01:40;;;;;;;;;;;;;;;20.32;39.49;103006.31;5013948;28;19918;-46
2023/12/18 08:04:06;;;;;;;;;;;;;;;20.33;39.56;103017.97;5025296;28;20383;-45
2023/12/18 08:06:31;;;;;;;;;;;;;;;20.31;39.78;103010.00;5023283;28;19917;-46
2023/12/18 08:08:56;;;;;;;;;;;;;;;20.31;39.64;103011.84;5026753;28;19918;-48
2023/12/18 08:11:22;;;;;;;;;;;;;;;20.29;39.61;103003.84;5027979;28;19918;-45
2023/12/18 08:13:48;;;;;;;;;;;;;;;20.30;39.88;103012.81;5003679;28;19917;-46
2023/12/18 08:16:13;;;;;;;;;;;;;;;20.27;39.84;103005.84;5028883;28;19966;-46
2023/12/18 08:18:42;;;;;;;;;;;;;;;20.27;39.98;102992.31;5033885;28;19916;-44
2023/12/18 08:21:10;;;;;;;;;;;;;;;20.28;39.95;103002.13;5018999;28;20359;-47
2023/12/18 08:23:35;;;;;;;;;;;;;;;20.26;39.72;102995.97;5012601;28;19952;-49
2023/12/18 08:26:01;;;;;;;;;;;;;;;20.26;39.52;102995.97;5016874;28;19914;-47
2023/12/18 08:28:26;;;;;;;;;;;;;;;19.74;39.68;102908.47;5037137;28;20611;-45
2023/12/18 08:30:51;;;;;;;;;;;;;;;20.26;39.93;102987.88;5032570;28;19912;-46
2023/12/18 08:33:16;;;;;;;;;;;;;;;20.25;39.81;102988.88;5035298;28;19923;-47
2023/12/18 08:35:41;;;;;;;;;;;;;;;20.26;39.86;102989.72;5013609;28;19914;-49
2023/12/18 08:38:07;;;;;;;;;;;;;;;20.26;39.88;102981.63;5011951;28;19917;-46
2023/12/18 08:40:32;;;;;;;;;;;;;;;20.26;39.90;102984.31;5011854;28;19924;-44
2023/12/18 08:42:57;;;;;;;;;;;;;;;20.26;39.67;102982.47;5025805;28;19921;-43
2023/12/18 08:45:22;;;;;;;;;;;;;;;20.26;39.67;102985.19;5072195;28;19922;-47
2023/12/18 08:47:48;;;;;;;;;;;;;;;20.26;39.56;102979.78;5016865;28;19920;-47
2023/12/18 08:50:13;;;;;;;;;;;;;;;20.27;39.62;102978.81;5026164;28;19913;-45
2023/12/18 08:52:38;;;;;;;;;;;;;;;20.28;39.72;102979.66;5013815;28;19918;-45
2023/12/18 08:55:03;;;;;;;;;;;;;;;20.29;39.92;102978.69;5016266;28;19917;-46
2023/12/18 08:57:29;;;;;;;;;;;;;;;20.28;39.53;102980.53;5009514;28;19921;-43
2023/12/18 08:59:56;;;;;;;;;;;;;;;20.30;39.55;102983.09;5040173;28;19918;-49
2023/12/18 09:02:22;;;;;;;;;;;;;;;20.30;39.57;102983.94;5010854;28;20054;-50
2023/12/18 09:04:47;;;;;;;;;;;;;;;20.32;39.75;102983.84;5006504;28;19992;-46
2023/12/18 09:07:12;;;;;;;;;;;;;;;20.34;39.70;102987.25;5083719;28;19924;-45
2023/12/18 09:09:39;;;;;;;;;;;;;;;20.34;39.69;102980.00;5003160;28;19988;-48
2023/12/18 09:12:05;;;;;;;;;;;;;;;20.36;39.54;102979.91;5005836;28;19984;-48
2023/12/18 09:14:30;;;;;;;;;;;;;;;20.37;39.65;102978.91;5058421;28;19960;-46
2023/12/18 09:16:55;;;;;;;;;;;;;;;20.37;39.46;102979.75;5002206;28;19922;-44
2023/12/18 09:19:20;;;;;;;;;;;;;;;20.39;39.68;102983.19;5016255;28;19921;-46
2023/12/18 09:21:45;;;;;;;;;;;;;;;20.41;39.72;102988.47;5030377;28;19979;-44
2023/12/18 09:24:11;;;;;;;;;;;;;;;20.43;39.44;102983.78;5009464;28;20285;-45
2023/12/18 09:26:37;;;;;;;;;;;;;;;20.45;39.66;102981.81;5005111;28;19977;-43
2023/12/18 09:29:02;;;;;;;;;;;;;;;20.48;39.64;102978.91;5034154;28;20393;-44
2023/12/18 09:31:27;;;;;;;;;;;;;;;20.50;39.69;102974.22;5022523;28;19914;-45
2023/12/18 09:33:53;;;;;;;;;;;;;;;20.53;39.40;102975.81;5024637;28;19918;-45
2023/12/18 09:36:18;;;;;;;;;;;;;;;20.55;39.60;102976.53;5018949;28;19920;-43
2023/12/18 09:38:43;;;;;;;;;;;;;;;20.57;39.31;102975.41;5017135;28;19923;-43
2023/12/18 09:41:08;;;;;;;;;;;;;;;20.59;39.32;102984.25;5000022;28;19921;-43
2023/12/18 09:43:33;;;;;;;;;;;;;;;20.62;39.38;102972.31;5064701;28;19918;-44
2023/12/18 09:45:59;;;;;;;;;;;;;;;20.64;39.24;102963.06;5068396;28;19961;-44
2023/12/18 09:48:24;;;;;;;;;;;;;;;20.67;39.14;102962.81;5018059;28;19918;-43
2023/12/18 09:50:49;;;;;;;;;;;;;;;20.70;39.16;102961.72;5022124;28;19945;-44
2023/12/18 09:53:17;;;;;;;;;;;;;;;20.74;39.19;102962.31;5036582;28;19947;-43
2023/12/18 09:55:42;;;;;;;;;;;;;;;20.75;39.38;102962.19;5064382;28;19968;-46
2023/12/18 09:58:07;;;;;;;;;;;;;;;20.78;39.29;102959.22;5050808;28;19913;-44
2023/12/18 10:00:32;;;;;;;;;;;;;;;20.81;39.36;102961.63;5075248;28;19916;-42
2023/12/18 10:02:58;;;;;;;;;;;;;;;20.83;39.20;102959.69;5067554;28;19914;-46
2023/12/18 10:05:24;;;;;;;;;;;;;;;20.86;39.13;102956.72;5014017;28;19918;-46
2023/12/18 10:07:50;;;;;;;;;;;;;;;20.90;39.13;102966.28;5034836;28;19984;-42
2023/12/18 10:10:15;;;;;;;;;;;;;;;20.93;38.83;102954.34;5017423;28;19925;-45
2023/12/18 10:12:40;;;;;;;;;;;;;;;20.95;39.07;102961.34;5036822;28;19918;-45
2023/12/18 10:15:06;;;;;;;;;;;;;;;20.98;38.94;102965.59;5036445;28;19999;-44
2023/12/18 10:17:33;;;;;;;;;;;;;;;21.02;38.75;102958.09;5022155;28;19917;-45
2023/12/18 10:20:00;;;;;;;;;;;;;;;21.04;38.49;102959.69;5011543;28;20352;-43
2023/12/18 10:22:26;;;;;;;;;;;;;;;21.06;38.83;102952.28;5014420;28;20012;-44
2023/12/18 10:24:51;;;;;;;;;;;;;;;21.10;38.48;102948.31;5040125;28;19922;-43
2023/12/18 10:27:17;;;;;;;;;;;;;;;21.13;38.45;102941.78;5051892;28;19925;-44
2023/12/18 10:29:42;;;;;;;;;;;;;;;21.17;38.44;102951.34;5070383;28;19913;-44
2023/12/18 10:32:07;;;;;;;;;;;;;;;21.19;38.31;102943.94;5023598;28;20402;-42
2023/12/18 10:34:36;;;;;;;;;;;;;;;21.23;38.48;102938.13;5013884;28;19914;-45
2023/12/18 10:37:02;;;;;;;;;;;;;;;21.26;38.36;102936.16;5014325;28;20004;-44
2023/12/18 10:39:29;;;;;;;;;;;;;;;21.29;38.39;102934.03;5022932;28;20362;-45
2023/12/18 10:41:55;;;;;;;;;;;;;;;21.32;38.31;102932.94;5080721;28;19938;-46
2023/12/18 10:44:21;;;;;;;;;;;;;;;21.36;38.13;102931.66;5033580;28;19988;-45
2023/12/18 10:46:46;;;;;;;;;;;;;;;21.39;38.02;102928.69;5036142;28;19921;-43
2023/12/18 10:49:11;;;;;;;;;;;;;;;21.42;38.07;102923.88;5010525;28;19924;-45
2023/12/18 10:51:37;;;;;;;;;;;;;;;21.44;38.06;102929.13;5078257;28;19916;-45
2023/12/18 10:54:02;;;;;;;;;;;;;;;21.48;38.15;102929.72;5077206;28;19917;-43
2023/12/18 10:56:27;;;;;;;;;;;;;;;21.50;38.02;102930.47;5023768;28;19926;-43
2023/12/18 10:58:55;;;;;;;;;;;;;;;21.53;38.13;102930.16;5067130;28;19933;-45
2023/12/18 11:01:20;;;;;;;;;;;;;;;21.55;37.84;102912.81;5069523;28;19924;-43
2023/12/18 11:03:45;;;;;;;;;;;;;;;21.58;38.04;102914.38;5068422;28;19985;-45
2023/12/18 11:06:10;;;;;;;;;;;;;;;21.61;37.72;102905.97;5014022;28;19917;-44
2023/12/18 11:08:36;;;;;;;;;;;;;;;21.64;37.98;102905.72;5021498;28;19917;-48
2023/12/18 11:11:02;;;;;;;;;;;;;;;21.68;37.56;102897.16;5027939;28;19921;-45
2023/12/18 11:13:28;;;;;;;;;;;;;;;21.72;37.76;102900.47;5067035;28;20372;-45
2023/12/18 11:16:08;;;;;;;;;;;;;;;21.75;37.78;102894.78;5073375;28;19918;-45
2023/12/18 11:18:33;;;;;;;;;;;;;;;21.78;37.54;102888.22;5062988;28;20008;-47
2023/12/18 11:20:58;;;;;;;;;;;;;;;21.80;37.72;102880.81;5005559;28;19929;-44
2023/12/18 11:23:27;;;;;;;;;;;;;;;21.83;37.76;102878.66;5043889;28;19983;-45
2023/12/18 11:25:52;;;;;;;;;;;;;;;21.84;37.49;102874.97;5069191;28;19920;-45
2023/12/18 11:28:18;;;;;;;;;;;;;;;21.88;37.51;102871.00;5083085;28;19921;-46
2023/12/18 11:30:43;;;;;;;;;;;;;;;21.90;37.62;102874.41;5063917;28;19953;-46
2023/12/18 11:33:10;;;;;;;;;;;;;;;21.93;37.75;102873.28;5019555;28;19926;-46
2023/12/18 11:35:35;;;;;;;;;;;;;;;22.00;37.69;102870.84;5024786;28;19914;-46
2023/12/18 11:38:11;;;;;;;;;;;;;;;22.02;37.61;102868.88;5026584;28;19917;-48
2023/12/18 11:40:36;;;;;;;;;;;;;;;22.07;37.45;102863.88;5018045;28;20053;-44
2023/12/18 11:43:02;;;;;;;;;;;;;;;22.11;37.43;102862.59;5005822;28;19926;-46
2023/12/18 11:45:27;;;;;;;;;;;;;;;22.13;37.45;102863.31;5007093;28;20012;-46
2023/12/18 11:47:59;;;;;;;;;;;;;;;22.14;37.71;102875.88;5022267;28;19974;-45
2023/12/18 11:50:26;;;;;;;;;;;;;;;22.19;37.43;102873.59;5015213;28;19914;-44
2023/12/18 11:52:57;;;;;;;;;;;;;;;22.21;37.67;102869.72;5060935;28;19914;-46
2023/12/18 11:55:41;;;;;;;;;;;;;;;22.26;37.63;102868.44;5021712;28;20392;-44
2023/12/18 11:58:07;;;;;;;;;;;;;;;22.27;37.84;102862.06;5011743;28;19952;-52
2023/12/18 12:00:33;;;;;;;;;;;;;;;22.31;37.55;102842.66;5011513;28;19914;-53
2023/12/18 12:02:58;;;;;;;;;;;;;;;22.35;37.52;102837.81;5014291;28;19971;-51
2023/12/18 12:05:24;;;;;;;;;;;;;;;22.38;37.46;102823.94;5022509;28;19959;-53
2023/12/18 12:07:49;;;;;;;;;;;;;;;22.39;37.46;102818.38;5086211;28;19918;-48
2023/12/18 12:10:15;;;;;;;;;;;;;;;22.45;37.36;102816.94;5018526;28;20388;-52
2023/12/18 12:12:40;;;;;;;;;;;;;;;22.49;37.16;102825.66;5009626;28;19966;-56
2023/12/18 12:15:05;;;;;;;;;;;;;;;22.49;37.12;102833.78;5005378;28;19914;-55
2023/12/18 12:17:30;;;;;;;;;;;;;;;22.52;37.22;102836.19;5009701;28;19939;-56
2023/12/18 12:19:56;;;;;;;;;;;;;;;22.53;37.13;102843.31;5013979;28;19925;-56
2023/12/18 12:22:21;;;;;;;;;;;;;;;22.55;37.13;102846.72;5026954;28;19933;-53
2023/12/18 12:24:46;;;;;;;;;;;;;;;22.58;37.07;102833.75;5023062;28;19934;-49
2023/12/18 12:27:12;;;;;;;;;;;;;;;22.61;36.74;102821.75;5010825;28;20478;-48